.
WxDataArchive / Data Records for 2015-04-28
2015-04-27 April 2015 2015-04-29

Data Records for Tuesday, 28 April 2015

Time	Temp	Chill	HIndex	Humid	Dewpt	 Wind 	HiWind	WindDir	Rain 	Barom
-----	----	-----	------	-----	-----	------	------	-------	-----	-----
00:00	37.8	37.8	37.8	82	32.8	0	0	---	0.00	30.082 
00:05	37.8	37.8	37.8	82	32.8	0	0	---	0.00	30.082 
00:10	37.5	37.5	37.5	82	32.5	0	0	---	0.00	30.082 
00:15	37.3	37.3	37.3	83	32.6	0	0	---	0.00	30.088 
00:20	37.2	37.2	37.2	83	32.5	0	0	---	0.00	30.088 
00:25	37.2	37.2	37.2	83	32.5	0	0	---	0.00	30.088 
00:30	37.0	37.0	37.0	83	32.3	0	0	---	0.00	30.085 
00:35	36.9	36.9	36.9	84	32.5	0	0	---	0.00	30.085 
00:40	36.8	36.8	36.8	84	32.4	0	0	---	0.00	30.085 
00:45	36.6	36.6	36.6	84	32.2	0	0	---	0.00	30.080 
00:50	36.5	36.5	36.5	84	32.1	0	0	---	0.00	30.080 
00:55	36.3	36.3	36.3	84	31.9	0	0	---	0.00	30.080 
01:00	36.2	36.2	36.2	84	31.8	0	0	---	0.00	30.086 
01:05	36.2	36.2	36.2	85	32.1	0	0	---	0.00	30.086 
01:10	36.0	36.0	36.0	85	31.9	0	0	---	0.00	30.086 
01:15	36.0	36.0	36.0	85	31.9	0	0	---	0.00	30.087 
01:20	36.0	36.0	36.0	85	31.9	0	0	---	0.00	30.087 
01:25	35.9	35.9	35.9	85	31.8	0	0	---	0.00	30.087 
01:30	35.9	35.9	35.9	85	31.8	0	0	---	0.00	30.085 
01:35	35.9	35.9	35.9	86	32.1	0	0	---	0.00	30.085 
01:40	35.8	35.8	35.8	86	32.0	0	0	---	0.00	30.085 
01:45	35.9	35.9	35.9	86	32.1	0	0	---	0.00	30.083 
01:50	36.0	36.0	36.0	86	32.2	0	0	---	0.00	30.083 
01:55	36.0	36.0	36.0	86	32.2	0	0	---	0.00	30.083 
02:00	35.9	35.9	35.9	86	32.1	0	0	---	0.00	30.081 
02:05	35.9	35.9	35.9	86	32.1	0	0	---	0.00	30.081 
02:10	35.8	35.8	35.8	86	32.0	0	0	---	0.00	30.081 
02:15	35.6	35.6	35.6	86	31.8	0	0	---	0.00	30.078 
02:20	35.5	35.5	35.5	86	31.7	0	0	---	0.00	30.078 
02:25	35.3	35.3	35.3	86	31.5	0	0	---	0.00	30.078 
02:30	35.2	35.2	35.2	86	31.4	0	0	---	0.00	30.080 
02:35	35.0	35.0	35.0	86	31.2	0	0	---	0.00	30.080 
02:40	34.9	34.9	34.9	86	31.1	0	0	---	0.00	30.080 
02:45	34.7	34.7	34.7	87	31.2	0	0	---	0.00	30.080 
02:50	34.7	34.7	34.7	87	31.2	0	0	---	0.00	30.080 
02:55	34.6	34.6	34.6	87	31.1	0	0	---	0.00	30.080 
03:00	34.6	34.6	34.6	87	31.1	0	0	---	0.00	30.076 
03:05	34.4	34.4	34.4	87	30.9	0	0	---	0.00	30.076 
03:10	34.3	34.3	34.3	87	30.8	0	0	---	0.00	30.076 
03:15	34.1	34.1	34.1	87	30.6	0	0	---	0.00	30.081 
03:20	34.1	34.1	34.1	87	30.6	0	0	---	0.00	30.081 
03:25	34.0	34.0	34.0	87	30.5	0	0	---	0.00	30.081 
03:30	33.8	33.8	33.8	88	30.6	0	0	---	0.00	30.083 
03:35	33.8	33.8	33.8	88	30.6	0	0	---	0.00	30.083 
03:40	33.8	33.8	33.8	88	30.6	0	0	---	0.00	30.083 
03:45	33.7	33.7	33.7	88	30.5	0	0	---	0.00	30.082 
03:50	33.7	33.7	33.7	88	30.5	0	0	---	0.00	30.082 
03:55	33.5	33.5	33.5	88	30.3	0	0	---	0.00	30.082 
04:00	33.5	33.5	33.5	88	30.3	0	0	---	0.00	30.083 
04:05	33.4	33.4	33.4	88	30.2	0	0	---	0.00	30.083 
04:10	33.2	33.2	33.2	88	30.0	0	0	---	0.00	30.083 
04:15	33.2	33.2	33.2	88	30.0	0	0	---	0.00	30.085 
04:20	33.2	33.2	33.2	89	30.3	0	0	---	0.00	30.085 
04:25	33.2	33.2	33.2	89	30.3	0	0	---	0.00	30.085 
04:30	33.1	33.1	33.1	89	30.2	0	0	---	0.00	30.089 
04:35	33.1	33.1	33.1	89	30.2	0	0	---	0.00	30.089 
04:40	32.9	32.9	32.9	89	30.0	0	0	---	0.00	30.089 
04:45	32.9	32.9	32.9	89	30.0	0	0	---	0.00	30.092 
04:50	32.8	32.8	32.8	89	29.9	0	0	---	0.00	30.092 
04:55	32.9	32.9	32.9	89	30.0	0	0	---	0.00	30.092 
05:00	32.9	32.9	32.9	90	30.3	0	0	---	0.00	30.093 
05:05	32.9	32.9	32.9	90	30.3	0	0	---	0.00	30.093 
05:10	32.8	32.8	32.8	90	30.2	0	0	---	0.00	30.093 
05:15	32.8	32.8	32.8	90	30.2	0	0	---	0.00	30.092 
05:20	32.7	32.7	32.7	90	30.1	0	0	---	0.00	30.092 
05:25	32.7	32.7	32.7	90	30.1	0	0	---	0.00	30.092 
05:30	32.7	32.7	32.7	90	30.1	0	0	---	0.00	30.097 
05:35	32.5	32.5	32.5	90	29.9	0	0	---	0.00	30.097 
05:40	32.5	32.5	32.5	90	29.9	0	0	---	0.00	30.097 
05:45	32.4	32.4	32.4	90	29.8	0	0	---	0.00	30.101 
05:50	32.5	32.5	32.5	90	29.9	0	0	---	0.00	30.101 
05:55	32.4	32.4	32.4	90	29.8	0	0	---	0.00	30.101 
06:00	32.4	32.4	32.4	90	29.8	0	0	---	0.00	30.103 
06:05	32.2	32.2	32.2	90	29.6	0	0	---	0.00	30.103 
06:10	32.1	32.1	32.1	90	29.5	0	0	---	0.00	30.103 
06:15	32.2	32.2	32.2	91	29.9	0	0	---	0.00	30.107 
06:20	32.4	32.4	32.4	91	30.1	0	0	---	0.00	30.107 
06:25	32.4	32.4	32.4	91	30.1	0	0	---	0.00	30.107 
06:30	32.4	32.4	32.4	91	30.1	0	0	---	0.00	30.117 
06:35	32.4	32.4	32.4	91	30.1	0	0	---	0.00	30.117 
06:40	32.4	32.4	32.4	90	29.8	0	0	---	0.00	30.117 
06:45	32.4	32.4	32.4	91	30.1	0	0	---	0.00	30.129 
06:50	32.4	32.4	32.4	91	30.1	0	0	---	0.00	30.129 
06:55	32.4	32.4	32.4	91	30.1	0	0	---	0.00	30.129 
07:00	32.5	32.5	32.5	91	30.2	0	0	---	0.00	30.137 
07:05	32.5	32.5	32.5	91	30.2	0	0	---	0.00	30.137 
07:10	32.5	32.5	32.5	91	30.2	0	0	---	0.00	30.137 
07:15	32.5	32.5	32.5	91	30.2	0	0	---	0.00	30.147 
07:20	32.7	32.7	32.7	91	30.4	0	0	---	0.00	30.147 
07:25	32.8	32.8	32.8	91	30.5	0	0	---	0.00	30.147 
07:30	33.2	33.2	33.2	91	30.9	0	0	---	0.00	30.148 
07:35	33.5	33.5	33.5	91	31.2	0	0	---	0.00	30.148 
07:40	33.8	33.8	33.8	91	31.5	0	0	---	0.00	30.148 
07:45	34.4	34.4	34.4	92	32.3	0	0	---	0.00	30.150 
07:50	35.8	35.8	35.8	93	34.0	0	0	---	0.00	30.150 
07:55	37.5	37.5	37.5	93	35.7	0	0	---	0.00	30.150 
08:00	39.2	39.2	39.2	92	37.1	0	0	---	0.00	30.149 
08:05	40.9	40.9	40.9	90	38.2	0	0	---	0.00	30.149 
08:10	42.3	42.3	42.3	87	38.7	0	0	---	0.00	30.149 
08:15	43.5	43.5	43.5	83	38.7	0	0	---	0.00	30.157 
08:20	44.3	44.3	44.3	81	38.8	0	0	---	0.00	30.157 
08:25	45.1	45.1	45.1	77	38.3	0	1	112	0.00	30.157 
08:30	45.7	45.7	45.7	75	38.2	0	0	---	0.00	30.155 
08:35	46.4	46.4	46.4	73	38.2	0	0	---	0.00	30.155 
08:40	47.3	47.3	47.3	71	38.4	0	0	---	0.00	30.155 
08:45	47.6	47.6	47.6	69	37.9	0	0	---	0.00	30.153 
08:50	47.9	47.9	47.9	68	37.9	0	0	---	0.00	30.153 
08:55	48.2	48.2	48.2	64	36.6	0	0	---	0.00	30.153 
09:00	48.6	48.6	48.6	64	37.0	0	2	112	0.00	30.152 
09:05	49.2	49.2	49.2	62	36.7	0	1	112	0.00	30.152 
09:10	49.9	49.9	49.9	61	37.0	0	2	112	0.00	30.152 
09:15	50.1	50.1	50.1	58	35.9	0	1	112	0.00	30.153 
09:20	50.7	50.7	50.7	61	37.7	0	1	112	0.00	30.153 
09:25	50.8	50.8	50.8	57	36.1	0	1	112	0.00	30.153 
09:30	51.3	51.3	51.3	57	36.6	0	2	112	0.00	30.150 
09:35	51.6	51.6	51.6	54	35.5	0	2	112	0.00	30.150 
09:40	51.9	51.9	51.9	54	35.8	0	1	45	0.00	30.150 
09:45	51.9	51.9	51.9	54	35.8	0	1	45	0.00	30.143 
09:50	51.9	51.9	51.9	53	35.3	0	2	45	0.00	30.143 
09:55	51.7	51.7	51.7	53	35.1	0	2	45	0.00	30.143 
10:00	51.7	51.7	51.7	52	34.6	0	2	45	0.00	30.138 
10:05	52.0	52.0	52.0	54	35.9	0	1	45	0.00	30.138 
10:10	52.5	52.5	52.5	52	35.4	0	2	45	0.00	30.138 
10:15	52.8	52.8	52.8	53	36.1	0	2	45	0.00	30.139 
10:20	52.9	52.9	52.9	53	36.2	0	2	45	0.00	30.139 
10:25	53.3	53.3	53.3	52	36.1	0	2	45	0.00	30.139 
10:30	53.5	53.5	53.5	49	34.8	1	4	68	0.00	30.136 
10:35	53.6	53.6	53.6	48	34.4	1	3	45	0.00	30.136 
10:40	53.6	53.6	53.6	50	35.4	1	4	270	0.00	30.136 
10:45	54.1	54.1	54.1	53	37.4	0	1	270	0.00	30.133 
10:50	54.2	54.2	54.2	50	36.0	1	4	270	0.00	30.133 
10:55	54.7	54.7	54.7	49	35.9	0	1	270	0.00	30.133 
11:00	54.8	54.8	54.8	48	35.5	0	1	270	0.00	30.130 
11:05	55.0	55.0	55.0	48	35.7	1	3	270	0.00	30.130 
11:10	55.1	55.1	55.1	48	35.8	0	3	270	0.00	30.130 
11:15	55.3	55.3	55.3	50	37.0	0	3	270	0.00	30.129 
11:20	55.4	55.4	55.4	50	37.1	0	2	270	0.00	30.129 
11:25	55.3	55.3	55.3	44	33.8	1	6	248	0.00	30.129 
11:30	55.3	55.3	55.3	46	34.9	0	3	180	0.00	30.128 
11:35	55.6	55.6	55.6	48	36.2	0	2	248	0.00	30.128 
11:40	56.2	56.2	56.2	47	36.2	1	4	248	0.00	30.128 
11:45	56.9	56.9	56.9	50	38.5	0	2	248	0.00	30.122 
11:50	57.3	57.3	57.3	48	37.8	0	3	248	0.00	30.122 
11:55	57.2	57.2	57.2	45	36.1	1	3	135	0.00	30.122 
12:00	57.2	57.2	57.2	49	38.2	0	3	135	0.00	30.119 
12:05	56.9	56.9	56.9	44	35.2	0	1	292	0.00	30.119 
12:10	56.5	56.5	56.5	46	36.0	0	2	292	0.00	30.119 
12:15	56.2	56.2	56.2	45	35.1	0	2	292	0.00	30.110 
12:20	55.9	55.9	55.9	45	34.9	1	2	292	0.00	30.110 
12:25	55.9	55.9	55.9	48	36.5	0	2	292	0.00	30.110 
12:30	56.6	56.6	56.6	49	37.7	0	2	292	0.00	30.107 
12:35	57.3	57.3	57.3	48	37.8	0	1	292	0.00	30.107 
12:40	58.3	58.3	58.3	48	38.7	1	4	90	0.00	30.107 
12:45	58.6	58.6	58.6	43	36.2	1	3	90	0.00	30.101 
12:50	58.4	58.4	58.4	43	36.0	2	4	90	0.00	30.101 
12:55	58.4	58.4	58.4	44	36.6	1	4	90	0.00	30.101 
13:00	58.0	58.0	58.0	43	35.6	1	3	90	0.00	30.092 
13:05	57.3	57.3	57.3	43	35.0	0	1	90	0.00	30.092 
13:10	57.5	57.5	57.5	46	36.9	1	3	90	0.00	30.092 
13:15	57.3	57.3	57.3	46	36.7	0	2	68	0.00	30.092 
13:20	57.6	57.6	57.6	46	37.0	1	4	315	0.00	30.092 
13:25	58.3	58.3	58.3	44	36.5	1	3	315	0.00	30.092 
13:30	58.9	58.9	58.9	48	39.2	0	2	22	0.00	30.081 
13:35	59.3	59.3	59.3	47	39.1	0	2	22	0.00	30.081 
13:40	59.8	59.8	59.8	44	37.8	0	3	68	0.00	30.081 
13:45	60.1	60.1	60.1	46	39.2	1	3	68	0.00	30.072 
13:50	60.2	60.2	60.2	41	36.4	1	4	292	0.00	30.072 
13:55	59.8	59.8	59.8	44	37.8	0	3	292	0.00	30.072 
14:00	59.6	59.6	59.6	43	37.1	0	2	292	0.00	30.059 
14:05	59.8	59.8	59.8	44	37.8	1	5	292	0.00	30.059 
14:10	59.9	59.9	59.9	43	37.3	0	3	270	0.00	30.059 
14:15	60.1	60.1	60.1	40	35.7	0	2	270	0.00	30.056 
14:20	60.4	60.4	60.4	43	37.8	1	3	270	0.00	30.056 
14:25	60.5	60.5	60.5	41	36.7	1	7	112	0.00	30.056 
14:30	60.5	60.5	60.5	42	37.3	1	4	22	0.00	30.049 
14:35	60.2	60.2	60.2	39	35.2	2	5	90	0.00	30.049 
14:40	60.2	60.2	60.2	43	37.6	0	2	90	0.00	30.049 
14:45	60.2	60.2	60.2	41	36.4	0	2	90	0.00	30.043 
14:50	60.4	60.4	60.4	42	37.2	0	2	90	0.00	30.043 
14:55	60.7	60.7	60.7	44	38.7	1	4	90	0.00	30.043 
15:00	60.2	60.2	60.2	41	36.4	0	2	90	0.00	30.033 
15:05	59.6	59.6	59.6	42	36.5	1	3	90	0.00	30.033 
15:10	59.5	59.5	59.5	46	38.7	0	2	90	0.00	30.033 
15:15	59.6	59.6	59.6	43	37.1	0	1	90	0.00	30.028 
15:20	59.9	59.9	59.9	42	36.8	0	4	90	0.00	30.028 
15:25	60.5	60.5	60.5	45	39.1	1	4	90	0.00	30.028 
15:30	60.9	60.9	60.9	40	36.4	1	6	90	0.00	30.023 
15:35	61.5	61.5	61.5	42	38.2	0	1	90	0.00	30.023 
15:40	62.0	62.0	62.0	40	37.4	1	3	90	0.00	30.023 
15:45	62.1	62.1	62.1	39	36.8	0	1	90	0.00	30.011 
15:50	61.3	61.3	61.3	39	36.1	1	3	22	0.00	30.011 
15:55	61.0	61.0	61.0	38	35.2	0	3	22	0.00	30.011 
16:00	61.0	61.0	61.0	39	35.9	1	3	22	0.00	30.006 
16:05	61.0	61.0	61.0	42	37.7	1	3	45	0.00	30.006 
16:10	61.3	61.3	61.3	39	36.1	1	3	45	0.00	30.006 
16:15	61.3	61.3	61.3	40	36.8	1	3	45	0.00	29.996 
16:20	61.6	61.6	61.6	41	37.7	1	4	45	0.00	29.996 
16:25	61.6	61.6	61.6	40	37.0	2	6	90	0.00	29.996 
16:30	61.5	61.5	61.5	42	38.2	2	5	90	0.00	29.990 
16:35	61.2	61.2	61.2	38	35.4	2	5	90	0.00	29.990 
16:40	61.3	61.3	61.3	44	39.2	0	3	90	0.00	29.990 
16:45	61.8	61.8	61.8	38	35.9	0	3	90	0.00	29.984 
16:50	62.1	62.1	62.1	38	36.2	0	2	90	0.00	29.984 
16:55	62.3	62.3	62.3	38	36.4	1	4	338	0.00	29.984 
17:00	62.6	62.6	62.6	37	36.0	0	2	315	0.00	29.979 
17:05	62.4	62.4	62.4	36	35.1	0	3	315	0.00	29.979 
17:10	62.6	62.6	62.6	40	37.9	1	3	22	0.00	29.979 
17:15	62.7	62.7	62.7	40	38.0	1	3	338	0.00	29.979 
17:20	62.9	62.9	62.9	36	35.5	1	2	338	0.00	29.979 
17:25	62.9	62.9	62.9	36	35.5	0	2	338	0.00	29.979 
17:30	63.1	63.1	63.1	35	35.0	0	2	338	0.00	29.978 
17:35	63.2	63.2	63.2	35	35.1	1	3	22	0.00	29.978 
17:40	63.1	63.1	63.1	40	38.4	0	1	22	0.00	29.978 
17:45	63.2	63.2	63.2	39	37.8	0	1	22	0.00	29.973 
17:50	63.4	63.4	63.4	38	37.3	0	1	22	0.00	29.973 
17:55	63.2	63.2	63.2	37	36.5	1	4	68	0.00	29.973 
18:00	63.1	63.1	63.1	39	37.7	0	3	68	0.00	29.975 
18:05	62.6	62.6	62.6	39	37.3	1	2	68	0.00	29.975 
18:10	62.3	62.3	62.3	38	36.4	0	2	68	0.00	29.975 
18:15	62.1	62.1	62.1	38	36.2	0	2	68	0.00	29.970 
18:20	62.0	62.0	62.0	38	36.1	0	2	68	0.00	29.970 
18:25	61.8	61.8	61.8	37	35.3	0	3	68	0.00	29.970 
18:30	61.6	61.6	61.6	39	36.4	1	5	68	0.00	29.966 
18:35	61.5	61.5	61.5	38	35.7	0	3	68	0.00	29.966 
18:40	61.3	61.3	61.3	37	34.8	0	3	68	0.00	29.966 
18:45	61.3	61.3	61.3	39	36.1	0	2	68	0.00	29.964 
18:50	61.3	61.3	61.3	38	35.5	0	2	68	0.00	29.964 
18:55	61.2	61.2	61.2	38	35.4	0	3	68	0.00	29.964 
19:00	61.2	61.2	61.2	40	36.7	0	3	68	0.00	29.963 
19:05	61.2	61.2	61.2	40	36.7	0	3	68	0.00	29.963 
19:10	61.2	61.2	61.2	38	35.4	0	1	68	0.00	29.963 
19:15	61.2	61.2	61.2	39	36.0	0	0	---	0.00	29.954 
19:20	61.2	61.2	61.2	40	36.7	0	2	68	0.00	29.954 
19:25	61.0	61.0	61.0	38	35.2	0	1	68	0.00	29.954 
19:30	61.0	61.0	61.0	38	35.2	0	0	---	0.00	29.955 
19:35	61.0	61.0	61.0	39	35.9	0	0	---	0.00	29.955 
19:40	60.9	60.9	60.9	38	35.1	0	1	68	0.00	29.955 
19:45	60.7	60.7	60.7	39	35.6	0	0	---	0.00	29.954 
19:50	60.4	60.4	60.4	39	35.3	0	1	68	0.00	29.954 
19:55	60.2	60.2	60.2	42	37.0	0	0	---	0.00	29.954 
20:00	59.9	59.9	59.9	40	35.5	0	0	---	0.00	29.957 
20:05	59.6	59.6	59.6	40	35.3	0	0	---	0.00	29.957 
20:10	59.5	59.5	59.5	40	35.2	0	0	---	0.00	29.957 
20:15	59.3	59.3	59.3	40	35.0	0	0	---	0.00	29.951 
20:20	59.0	59.0	59.0	41	35.3	0	0	---	0.00	29.951 
20:25	58.7	58.7	58.7	43	36.3	0	0	---	0.00	29.951 
20:30	58.3	58.3	58.3	44	36.5	0	0	---	0.00	29.952 
20:35	58.0	58.0	58.0	44	36.2	0	0	---	0.00	29.952 
20:40	57.5	57.5	57.5	46	36.9	0	0	---	0.00	29.952 
20:45	57.2	57.2	57.2	46	36.6	0	0	---	0.00	29.955 
20:50	56.9	56.9	56.9	47	36.9	0	0	---	0.00	29.955 
20:55	56.6	56.6	56.6	47	36.6	0	0	---	0.00	29.955 
21:00	56.3	56.3	56.3	48	36.9	0	0	---	0.00	29.955 
21:05	55.9	55.9	55.9	48	36.5	0	0	---	0.00	29.955 
21:10	55.6	55.6	55.6	49	36.7	0	0	---	0.00	29.955 
21:15	55.3	55.3	55.3	50	37.0	0	0	---	0.00	29.955 
21:20	54.8	54.8	54.8	51	37.0	0	0	---	0.00	29.955 
21:25	54.5	54.5	54.5	51	36.7	0	0	---	0.00	29.955 
21:30	54.2	54.2	54.2	52	37.0	0	0	---	0.00	29.959 
21:35	53.8	53.8	53.8	52	36.6	0	0	---	0.00	29.959 
21:40	53.5	53.5	53.5	54	37.3	0	0	---	0.00	29.959 
21:45	53.2	53.2	53.2	54	37.0	0	0	---	0.00	29.956 
21:50	52.8	52.8	52.8	54	36.6	0	0	---	0.00	29.956 
21:55	52.3	52.3	52.3	56	37.1	0	0	---	0.00	29.956 
22:00	51.9	51.9	51.9	57	37.1	0	0	---	0.00	29.956 
22:05	51.4	51.4	51.4	57	36.7	0	0	---	0.00	29.956 
22:10	51.0	51.0	51.0	58	36.7	0	0	---	0.00	29.956 
22:15	50.7	50.7	50.7	58	36.5	0	0	---	0.00	29.954 
22:20	50.2	50.2	50.2	59	36.4	0	0	---	0.00	29.954 
22:25	49.9	49.9	49.9	60	36.6	0	0	---	0.00	29.954 
22:30	49.6	49.6	49.6	61	36.7	0	0	---	0.00	29.957 
22:35	49.4	49.4	49.4	63	37.3	0	0	---	0.00	29.957 
22:40	49.2	49.2	49.2	65	37.9	0	0	---	0.00	29.957 
22:45	49.1	49.1	49.1	65	37.8	0	0	---	0.00	29.956 
22:50	48.9	48.9	48.9	66	38.0	0	0	---	0.00	29.956 
22:55	48.8	48.8	48.8	66	38.0	0	0	---	0.00	29.956 
23:00	48.8	48.8	48.8	67	38.3	0	1	68	0.00	29.956 
23:05	49.6	49.6	49.6	64	37.9	0	1	68	0.00	29.956 
23:10	50.7	50.7	50.7	61	37.7	0	1	68	0.00	29.956 
23:15	51.1	51.1	51.1	59	37.3	0	1	68	0.00	29.952 
23:20	51.3	51.3	51.3	59	37.5	0	0	---	0.00	29.952 
23:25	51.3	51.3	51.3	58	37.0	0	0	---	0.00	29.952 
23:30	51.1	51.1	51.1	58	36.8	0	0	---	0.00	29.951 
23:35	50.8	50.8	50.8	59	37.0	0	0	---	0.00	29.951 
23:40	50.7	50.7	50.7	59	36.9	0	0	---	0.00	29.951 
23:45	50.5	50.5	50.5	59	36.7	0	0	---	0.00	29.947 
23:50	50.2	50.2	50.2	60	36.9	0	1	68	0.00	29.947 
23:55	50.1	50.1	50.1	60	36.8	0	0	---	0.00	29.947 

CoCoRaHS
IN-AL-39
A2 Web Hosting
Creative Commons License
GoDaddy
search engine by freefind advanced

loaded 2018-11-15 03:08:08 • last modified 2010-11-18 10:43:29
Privacy PolicyDisclaimer
• wx.awcolley.com is powered by PmWiki v.2002016 •
• all content (unless otherwise noted) © 2018 A W Colley